Tonyrefail, United Kingdom
Current Conditions -  °F | °C
As of 6:50 AM on Friday 28 Nov 2014 (Local Time) from EGDX Reporting Station
Overcast Overcast  
Wind Chill: 10°   Ceiling: 1200
Heat Index: 10°   Visibility: 6mi
Dew Point:   Wind: 15mph
Humidity: 94%   Direction: 80°E
Pressure: 29.5"   Gusts: NA
Location:  51.58°N, 3.43°W
Report Text: EGDX 280650Z AUTO 08013KT 9999 OVC012/// 10/09 Q0999
Loading
Personal Weather Stations






























Interactive Weather Map New forecast layout! Learn more

10-Day Weather Forecast

Advertisements
Track Severe Weather on mobile